Brownville, New York
Current Conditions -  °F | °C
As of 6:56 PM on Friday 24 Oct 2014 (Local Time) from KART Reporting Station
Clear Clear  
Wind Chill: 51°   Ceiling: Unl
Heat Index: 51°   Visibility: 10mi
Dew Point: 44°   Wind: 6mph
Humidity: 77%   Direction: 210°SSW
Pressure: 29.88"   Gusts: NA
Location:  44.01°N, 75.98°W
Report Text: KART 242256Z AUTO 21005KT 10SM CLR 11/07 A2988 RMK AO2 SLP120 T01060067
Loading
Personal Weather Stations






























Interactive Weather Map
Tropical Storm Tracking
New forecast layout! Learn more

10-Day Weather Forecast

Advertisements
Track Severe Weather on mobile